Time,TemperatureF,DewpointF,PressureIn,WindDirection,WindDirectionDegrees,WindSpeedMPH,WindSpeedGustMPH,Humidity,HourlyPrecipIn,Conditions,Clouds,dailyrainin,SoftwareType,DateUTC
2013-07-08 00:24:00,79.9,68.0,30.18,East,95,0.0,-999.0,68,-99.99,,,0.00,weatherlink.com 1.10,2013-07-08 04:24:00,
2013-07-08 00:39:00,79.9,68.0,30.18,East,95,1.0,-999.0,68,-99.99,,,0.00,weatherlink.com 1.10,2013-07-08 04:39:00,
2013-07-08 00:54:00,79.9,68.0,30.18,East,95,0.0,-999.0,68,-99.99,,,0.00,weatherlink.com 1.10,2013-07-08 04:54:00,
2013-07-08 01:09:00,79.9,68.0,30.18,East,93,0.0,-999.0,68,-99.99,,,0.00,weatherlink.com 1.10,2013-07-08 05:09:00,
2013-07-08 01:24:00,79.9,68.0,30.18,East,92,0.0,-999.0,68,-99.99,,,0.00,weatherlink.com 1.10,2013-07-08 05:24:00,
2013-07-08 01:39:00,79.8,68.0,30.18,East,92,0.0,-999.0,68,-99.99,,,0.00,weatherlink.com 1.10,2013-07-08 05:39:00,
2013-07-08 01:54:00,79.6,68.0,30.17,East,92,0.0,-999.0,68,-99.99,,,0.00,weatherlink.com 1.10,2013-07-08 05:54:00,
2013-07-08 02:09:00,79.6,69.0,30.17,East,92,0.0,-999.0,69,-99.99,,,0.00,weatherlink.com 1.10,2013-07-08 06:09:00,
2013-07-08 02:24:00,79.4,68.0,30.17,East,92,0.0,-999.0,69,-99.99,,,0.00,weatherlink.com 1.10,2013-07-08 06:24:00,
2013-07-08 02:39:00,79.2,68.0,30.18,East,92,0.0,-999.0,69,-99.99,,,0.00,weatherlink.com 1.10,2013-07-08 06:39:00,
2013-07-08 02:54:00,79.2,68.0,30.18,East,92,0.0,-999.0,69,-99.99,,,0.00,weatherlink.com 1.10,2013-07-08 06:54:00,
2013-07-08 03:09:00,79.2,69.0,30.18,East,92,0.0,-999.0,70,-99.99,,,0.00,weatherlink.com 1.10,2013-07-08 07:09:00,
2013-07-08 03:24:00,79.2,69.0,30.17,East,92,0.0,-999.0,70,-99.99,,,0.00,weatherlink.com 1.10,2013-07-08 07:24:00,
2013-07-08 03:39:00,78.8,68.0,30.17,East,92,0.0,-999.0,70,-99.99,,,0.00,weatherlink.com 1.10,2013-07-08 07:39:00,
2013-07-08 03:54:00,78.6,68.0,30.17,East,92,0.0,-999.0,70,-99.99,,,0.00,weatherlink.com 1.10,2013-07-08 07:54:00,
2013-07-08 04:09:00,78.6,68.0,30.16,East,92,0.0,-999.0,70,-99.99,,,0.00,weatherlink.com 1.10,2013-07-08 08:09:00,
2013-07-08 04:24:00,78.5,68.0,30.16,East,92,1.0,-999.0,70,-99.99,,,0.00,weatherlink.com 1.10,2013-07-08 08:24:00,
2013-07-08 04:39:00,78.6,68.0,30.16,East,91,0.0,-999.0,70,-99.99,,,0.00,weatherlink.com 1.10,2013-07-08 08:39:00,
2013-07-08 04:54:00,78.6,68.0,30.17,East,91,0.0,-999.0,70,-99.99,,,0.00,weatherlink.com 1.10,2013-07-08 08:54:00,
2013-07-08 05:09:00,78.5,68.0,30.17,East,91,0.0,-999.0,70,-99.99,,,0.00,weatherlink.com 1.10,2013-07-08 09:09:00,
2013-07-08 05:24:00,78.3,68.0,30.17,East,91,0.0,-999.0,70,-99.99,,,0.00,weatherlink.com 1.10,2013-07-08 09:24:00,
2013-07-08 05:39:00,78.1,68.0,30.17,East,91,0.0,-999.0,71,-99.99,,,0.00,weatherlink.com 1.10,2013-07-08 09:39:00,
2013-07-08 05:54:00,77.6,68.0,30.18,East,91,0.0,-999.0,72,-99.99,,,0.00,weatherlink.com 1.10,2013-07-08 09:54:00,
2013-07-08 06:09:00,77.4,68.0,30.18,East,91,0.0,-999.0,73,-99.99,,,0.00,weatherlink.com 1.10,2013-07-08 10:09:00,
2013-07-08 06:24:00,76.8,68.0,30.18,East,91,0.0,-999.0,74,-99.99,,,0.00,weatherlink.com 1.10,2013-07-08 10:24:00,
2013-07-08 06:39:00,76.5,68.0,30.19,East,91,0.0,-999.0,75,-99.99,,,0.00,weatherlink.com 1.10,2013-07-08 10:39:00,
2013-07-08 06:54:00,76.7,69.0,30.20,East,91,0.0,-999.0,77,-99.99,,,0.00,weatherlink.com 1.10,2013-07-08 10:54:00,
2013-07-08 07:09:00,76.8,69.0,30.19,East,91,0.0,-999.0,77,-99.99,,,0.00,weatherlink.com 1.10,2013-07-08 11:09:00,
2013-07-08 07:24:00,77.0,70.0,30.20,East,91,0.0,-999.0,78,-99.99,,,0.00,weatherlink.com 1.10,2013-07-08 11:24:00,
2013-07-08 07:39:00,77.4,70.0,30.20,East,91,0.0,-999.0,78,-99.99,,,0.00,weatherlink.com 1.10,2013-07-08 11:39:00,
2013-07-08 07:54:00,77.9,71.0,30.20,East,91,0.0,-999.0,78,-99.99,,,0.00,weatherlink.com 1.10,2013-07-08 11:54:00,
2013-07-08 08:09:00,78.1,70.0,30.20,East,91,0.0,-999.0,77,-99.99,,,0.00,weatherlink.com 1.10,2013-07-08 12:09:00,
2013-07-08 08:24:00,78.6,71.0,30.20,East,91,0.0,-999.0,77,-99.99,,,0.00,weatherlink.com 1.10,2013-07-08 12:24:00,
2013-07-08 08:39:00,79.4,71.0,30.21,East,91,0.0,-999.0,76,-99.99,,,0.00,weatherlink.com 1.10,2013-07-08 12:39:00,
2013-07-08 08:54:00,79.8,70.0,30.21,East,91,0.0,-999.0,73,-99.99,,,0.00,weatherlink.com 1.10,2013-07-08 12:54:00,
2013-07-08 09:09:00,80.3,71.0,30.21,East,91,3.0,-999.0,73,-99.99,,,0.00,weatherlink.com 1.10,2013-07-08 13:09:00,
2013-07-08 09:24:00,80.5,70.0,30.21,East,90,0.0,-999.0,71,-99.99,,,0.00,weatherlink.com 1.10,2013-07-08 13:24:00,
2013-07-08 09:39:00,80.9,70.0,30.21,ENE,78,0.0,-999.0,69,-99.99,,,0.00,weatherlink.com 1.10,2013-07-08 13:39:00,
2013-07-08 09:54:00,81.6,70.0,30.21,ENE,78,0.0,-999.0,68,-99.99,,,0.00,weatherlink.com 1.10,2013-07-08 13:54:00,
2013-07-08 10:09:00,82.0,70.0,30.21,NNE,18,0.0,-999.0,67,-99.99,,,0.00,weatherlink.com 1.10,2013-07-08 14:09:00,
2013-07-08 10:24:00,82.2,70.0,30.21,ENE,69,0.0,-999.0,66,-99.99,,,0.00,weatherlink.com 1.10,2013-07-08 14:24:00,
2013-07-08 10:39:00,82.6,70.0,30.21,ENE,57,1.0,-999.0,66,-99.99,,,0.00,weatherlink.com 1.10,2013-07-08 14:39:00,
2013-07-08 10:54:00,83.2,70.0,30.21,North,356,0.0,-999.0,64,-99.99,,,0.00,weatherlink.com 1.10,2013-07-08 14:54:00,
2013-07-08 11:09:00,84.5,70.0,30.21,NNE,24,0.0,-999.0,63,-99.99,,,0.00,weatherlink.com 1.10,2013-07-08 15:09:00,
2013-07-08 11:24:00,84.7,70.0,30.21,ENE,68,0.0,-999.0,61,-99.99,,,0.00,weatherlink.com 1.10,2013-07-08 15:24:00,
2013-07-08 11:39:00,85.3,70.0,30.21,NE,54,0.0,-999.0,61,-99.99,,,0.00,weatherlink.com 1.10,2013-07-08 15:39:00,
2013-07-08 11:54:00,84.9,69.0,30.22,NE,54,0.0,-999.0,60,-99.99,,,0.00,weatherlink.com 1.10,2013-07-08 15:54:00,
2013-07-08 12:09:00,84.7,69.0,30.21,SE,131,0.0,-999.0,60,-99.99,,,0.00,weatherlink.com 1.10,2013-07-08 16:09:00,
2013-07-08 12:24:00,85.7,70.0,30.21,West,277,0.0,-999.0,59,-99.99,,,0.00,weatherlink.com 1.10,2013-07-08 16:24:00,
2013-07-08 12:39:00,86.1,70.0,30.21,ENE,64,0.0,-999.0,59,-99.99,,,0.00,weatherlink.com 1.10,2013-07-08 16:39:00,
2013-07-08 12:55:00,87.0,70.0,30.21,North,351,1.0,-999.0,57,-99.99,,,0.00,weatherlink.com 1.10,2013-07-08 16:55:00,
2013-07-08 13:10:00,88.0,70.0,30.21,ENE,63,0.0,-999.0,56,-99.99,,,0.00,weatherlink.com 1.10,2013-07-08 17:10:00,
2013-07-08 13:25:00,88.0,70.0,30.21,ENE,72,2.0,-999.0,56,-99.99,,,0.00,weatherlink.com 1.10,2013-07-08 17:25:00,
2013-07-08 13:40:00,87.2,69.0,30.21,ENE,68,2.0,-999.0,55,-99.99,,,0.00,weatherlink.com 1.10,2013-07-08 17:40:00,
2013-07-08 13:55:00,87.6,69.0,30.21,East,91,1.0,-999.0,54,-99.99,,,0.00,weatherlink.com 1.10,2013-07-08 17:55:00,
2013-07-08 14:10:00,87.2,70.0,30.21,ENE,76,1.0,-999.0,56,-99.99,,,0.00,weatherlink.com 1.10,2013-07-08 18:10:00,
2013-07-08 15:10:00,87.8,70.0,30.20,SW,229,1.0,-999.0,55,-99.99,,,0.00,weatherlink.com 1.10,2013-07-08 19:10:00,
2013-07-08 15:40:00,86.5,69.0,30.19,East,84,0.0,-999.0,56,-99.99,,,0.00,weatherlink.com 1.10,2013-07-08 19:40:00,
2013-07-08 15:55:00,87.2,70.0,30.20,NNE,33,0.0,-999.0,56,-99.99,,,0.00,weatherlink.com 1.10,2013-07-08 19:55:00,
2013-07-08 16:25:00,87.2,69.0,30.19,East,97,1.0,-999.0,55,-99.99,,,0.00,weatherlink.com 1.10,2013-07-08 20:25:00,
2013-07-08 16:55:00,85.9,69.0,30.18,NE,38,1.0,-999.0,58,-99.99,,,0.00,weatherlink.com 1.10,2013-07-08 20:55:00,
2013-07-08 17:10:00,85.9,68.0,30.18,East,80,0.0,-999.0,56,-99.99,,,0.00,weatherlink.com 1.10,2013-07-08 21:10:00,
2013-07-08 17:25:00,85.7,68.0,30.17,SE,124,0.0,-999.0,56,-99.99,,,0.00,weatherlink.com 1.10,2013-07-08 21:25:00,
2013-07-08 17:40:00,85.5,68.0,30.17,NW,318,1.0,-999.0,56,-99.99,,,0.00,weatherlink.com 1.10,2013-07-08 21:40:00,
2013-07-08 17:55:00,84.9,68.0,30.17,NNE,20,0.0,-999.0,57,-99.99,,,0.00,weatherlink.com 1.10,2013-07-08 21:55:00,
2013-07-08 18:25:00,84.5,68.0,30.17,NNE,31,1.0,-999.0,58,-99.99,,,0.00,weatherlink.com 1.10,2013-07-08 22:25:00,
2013-07-08 18:40:00,84.3,68.0,30.17,WNW,298,0.0,-999.0,59,-99.99,,,0.00,weatherlink.com 1.10,2013-07-08 22:40:00,
2013-07-08 18:55:00,84.5,68.0,30.17,ESE,118,1.0,-999.0,58,-99.99,,,0.00,weatherlink.com 1.10,2013-07-08 22:55:00,
2013-07-08 19:40:00,83.0,68.0,30.17,NE,43,2.0,-999.0,60,-99.99,,,0.00,weatherlink.com 1.10,2013-07-08 23:40:00,
2013-07-08 19:55:00,82.2,68.0,30.16,East,93,0.0,-999.0,62,-99.99,,,0.00,weatherlink.com 1.10,2013-07-08 23:55:00,
2013-07-08 20:10:00,81.8,67.0,30.15,East,99,0.0,-999.0,62,-99.99,,,0.00,weatherlink.com 1.10,2013-07-09 00:10:00,
2013-07-08 20:25:00,81.4,68.0,30.15,ENE,66,0.0,-999.0,63,-99.99,,,0.00,weatherlink.com 1.10,2013-07-09 00:25:00,
2013-07-08 20:55:00,80.7,67.0,30.16,East,95,1.0,-999.0,64,-99.99,,,0.00,weatherlink.com 1.10,2013-07-09 00:55:00,
2013-07-08 21:10:00,80.5,67.0,30.17,East,86,0.0,-999.0,64,-99.99,,,0.00,weatherlink.com 1.10,2013-07-09 01:10:00,
2013-07-08 21:25:00,80.5,68.0,30.18,East,85,0.0,-999.0,65,-99.99,,,0.00,weatherlink.com 1.10,2013-07-09 01:25:00,
2013-07-08 21:40:00,80.1,67.0,30.18,ENE,58,0.0,-999.0,64,-99.99,,,0.00,weatherlink.com 1.10,2013-07-09 01:40:00,
2013-07-08 22:10:00,79.9,67.0,30.19,East,92,0.0,-999.0,64,-99.99,,,0.00,weatherlink.com 1.10,2013-07-09 02:10:00,
2013-07-08 22:25:00,79.8,67.0,30.20,East,92,0.0,-999.0,64,-99.99,,,0.00,weatherlink.com 1.10,2013-07-09 02:25:00,
2013-07-08 22:40:00,79.6,66.0,30.20,East,92,0.0,-999.0,64,-99.99,,,0.00,weatherlink.com 1.10,2013-07-09 02:40:00,
2013-07-08 23:10:00,79.2,66.0,30.20,East,92,0.0,-999.0,65,-99.99,,,0.00,weatherlink.com 1.10,2013-07-09 03:10:00,
2013-07-08 23:25:00,79.0,66.0,30.20,East,92,0.0,-999.0,65,-99.99,,,0.00,weatherlink.com 1.10,2013-07-09 03:25:00,
2013-07-08 23:40:00,79.2,67.0,30.20,East,92,0.0,-999.0,66,-99.99,,,0.00,weatherlink.com 1.10,2013-07-09 03:40:00,